Flight Track Log - Related Links

Times and Time Zones

All times are in EDT time to prevent confusion due to time zone crossing. See the N476DS flight status page for this flight to view local times or setup timezone preferences in your user account.

Time Position Orientation Groundspeed Altitude Reporting Facility
EDT Latitude Longitude Course Direction KTS MPH feet Rate Location/Type
Sun 01:55:00 PM 37.5110 -78.9624 76° East  Level Estimated
Sun 01:56:00 PM 37.4950 -78.9104 111° Southeast  Level FlightAware Approximate
Sun 01:57:00 PM 37.5261 -78.8708 76° East  Level Estimated
Sun 01:58:00 PM 37.5218 -78.8153 96° East  Level FlightAware Approximate
Sun 01:58:00 PM 37.3303 -78.9194 96° East 123 142 7,700  Level Washington Center
Sun 01:59:00 PM 37.5175 -78.7598 96° East  Level FlightAware Approximate
Sun 01:59:00 PM 37.3297 -78.8644 91° East 123 142 8,400  Level Washington Center
Sun 02:00:00 PM 37.5131 -78.7043 96° East  Level FlightAware Approximate
Sun 02:00:01 PM 37.3394 -78.8206 74° East 123 142 8,700  Level Washington Center
Sun 02:00:59 PM 37.3489 -78.7739 76° East 123 142 9,000 151 Climbing Washington Center
Sun 02:01:00 PM 37.5087 -78.6488 96° East  Level FlightAware Approximate
Sun 02:02:00 PM 37.5043 -78.5933 96° East  Level FlightAware Approximate
Sun 02:02:00 PM 37.3586 -78.7194 77° East 138 159 9,000  Level Washington Center
Sun 02:03:01 PM 37.3706 -78.6650 75° East 158 182 9,000  Level Washington Center
Sun 02:03:58 PM 37.3822 -78.6106 75° East 163 188 9,000  Level Washington Center
Sun 02:04:59 PM 37.3922 -78.5536 78° East 163 188 9,000  Level Washington Center
Sun 02:06:00 PM 37.4017 -78.4989 78° East 163 188 9,000  Level Washington Center
Sun 02:07:00 PM 37.4136 -78.4367 76° East 163 188 9,000  Level Washington Center
Sun 02:07:58 PM 37.4256 -78.3822 75° East 163 188 9,000  Level Washington Center
Sun 02:08:58 PM 37.4372 -78.3225 76° East 163 188 9,000  Level Washington Center
Sun 02:09:59 PM 37.4467 -78.2678 78° East 163 188 9,000  Level Washington Center
Sun 02:10:59 PM 37.4583 -78.2161 74° East 163 188 9,000  Level Washington Center
Sun 02:12:00 PM 37.4661 -78.1508 81° East 163 188 9,000  Level Washington Center
Sun 02:13:00 PM 37.4756 -78.0989 77° East 163 188 9,000  Level Washington Center
Sun 02:13:58 PM 37.4872 -78.0417 76° East 163 188 9,000  Level Washington Center
Sun 02:14:59 PM 37.4986 -77.9844 76° East 163 188 9,000  Level Washington Center
Sun 02:15:59 PM 37.5103 -77.9272 76° East 163 188 9,000  Level Washington Center
Sun 02:17:00 PM 37.5197 -77.8697 78° East 163 188 9,000  Level Washington Center
Sun 02:17:58 PM 37.5269 -77.8125 81° East 163 188 9,000  Level Washington Center
Sun 02:18:58 PM 37.5322 -77.7575 83° East 158 182 9,000  Level Washington Center
Sun 02:19:59 PM 37.5558 -77.7136 56° Northeast 153 176 9,000  Level Washington Center
Sun 02:21:00 PM 37.5797 -77.6672 57° Northeast 153 176 9,000  Level Washington Center
Sun 02:23:24 PM 37.6333 -77.5333 63° Northeast 164 189 9,000  Level Potomac TRACON
Sun 02:24:31 PM 37.6667 -77.4833 50° Northeast 163 188 9,000  Level Potomac TRACON
Sun 02:25:31 PM 37.6833 -77.4333 67° East 163 188 9,000  Level Potomac TRACON
Sun 02:26:31 PM 37.7167 -77.3833 50° Northeast 167 192 9,000  Level Potomac TRACON
Sun 02:27:32 PM 37.7333 -77.3333 67° East 161 185 9,000  Level Potomac TRACON
Sun 02:28:32 PM 37.7667 -77.2833 50° Northeast 162 186 9,000  Level Potomac TRACON
Sun 02:29:32 PM 37.7833 -77.2500 58° Northeast 157 181 9,000  Level Potomac TRACON
Sun 02:30:32 PM 37.8000 -77.2000 67° East 170 196 9,000  Level Potomac TRACON
Sun 02:31:36 PM 37.8253 -77.1508 57° Northeast 169 194 9,000  Level Washington Center
Sun 02:32:36 PM 37.8489 -77.1014 59° Northeast 163 188 9,000  Level Washington Center
Sun 02:33:34 PM 37.8725 -77.0517 59° Northeast 171 197 9,000  Level Washington Center
Sun 02:34:34 PM 37.8939 -77.0022 61° Northeast 165 190 9,000  Level Washington Center
Sun 02:35:35 PM 37.9172 -76.9553 58° Northeast 160 184 9,000  Level Washington Center
Sun 02:36:36 PM 37.9408 -76.9056 59° Northeast 160 184 9,000  Level Washington Center
Sun 02:37:36 PM 37.9622 -76.8586 60° Northeast 160 184 9,000  Level Washington Center
Sun 02:38:36 PM 37.9919 -76.8144 49° Northeast 165 190 9,000  Level Washington Center
Sun 02:39:34 PM 38.0194 -76.7725 50° Northeast 160 184 9,000  Level Washington Center
Sun 02:40:36 PM 38.0489 -76.7308 48° Northeast 154 177 9,000  Level Washington Center
Sun 02:41:34 PM 38.0825 -76.7025 34° Northeast 149 171 9,000  Level Washington Center
Sun 02:42:34 PM 38.1183 -76.6686 37° Northeast 149 171 9,000  Level Washington Center
Sun 02:43:35 PM 38.1456 -76.6425 37° Northeast 149 171 9,000  Level Washington Center
Sun 02:44:35 PM 38.1836 -76.6008 41° Northeast 149 171 9,000  Level Washington Center
Sun 02:45:35 PM 38.2172 -76.5669 38° Northeast 149 171 9,000  Level Washington Center
Sun 02:46:36 PM 38.2508 -76.5303 41° Northeast 149 171 9,000  Level Washington Center
Sun 02:47:34 PM 38.2867 -76.4992 34° Northeast 154 177 9,000  Level Washington Center
Sun 02:48:34 PM 38.3222 -76.4650 37° Northeast 159 183 9,000  Level Washington Center
Sun 02:49:36 PM 38.3558 -76.4311 38° Northeast 159 183 9,000  Level Washington Center
Sun 02:50:36 PM 38.3894 -76.3969 39° Northeast 154 177 9,000  Level Washington Center
Sun 02:51:36 PM 38.4231 -76.3628 39° Northeast 154 177 9,000  Level Washington Center
Sun 02:52:34 PM 38.4567 -76.3261 41° Northeast 154 177 9,000  Level Washington Center
Sun 02:53:35 PM 38.4903 -76.2944 36° Northeast 154 177 9,000  Level Washington Center
Sun 02:54:35 PM 38.5236 -76.2578 41° Northeast 159 183 9,000  Level Washington Center
Sun 02:55:34 PM 38.5594 -76.2208 39° Northeast 159 183 9,000  Level Washington Center
Sun 02:56:35 PM 38.5950 -76.1867 37° Northeast 159 183 9,000  Level Washington Center
Sun 02:57:35 PM 38.6347 -76.1444 40° Northeast 167 192 9,000  Level Washington Center
Sun 02:58:36 PM 38.6683 -76.1075 41° Northeast 162 186 9,000  Level Washington Center
Sun 02:59:34 PM 38.7019 -76.0731 39° Northeast 157 181 9,000  Level Washington Center
Sun 03:00:34 PM 38.7375 -76.0361 39° Northeast 157 181 9,000  Level Washington Center
Sun 03:01:35 PM 38.7708 -76.0017 39° Northeast 157 181 9,000  Level Washington Center
Sun 03:02:35 PM 38.8044 -75.9647 41° Northeast 157 181 9,000  Level Washington Center
Sun 03:03:36 PM 38.8419 -75.9300 36° Northeast 157 181 9,000 -198 Level Washington Center
Sun 03:04:36 PM 38.8775 -75.8931 39° Northeast 157 181 8,600 -450 Descending Washington Center
Sun 03:05:36 PM 38.9150 -75.8503 42° Northeast 162 186 8,100 -305 Descending Washington Center
Sun 03:06:34 PM 38.9506 -75.8131 39° Northeast 162 186 8,000 -151 Descending Washington Center
Sun 03:07:35 PM 38.9861 -75.7758 39° Northeast 156 180 7,800 -316 Descending Washington Center
Sun 03:08:47 PM 39.0217 -75.7358 41° Northeast 161 185 7,300 -493 Descending Washington Center
Sun 03:09:49 PM 39.0694 -75.7011 29° Northeast 161 185 6,700 -545 Descending Washington Center
Sun 03:10:48 PM 39.1133 -75.6933 North 155 178 6,200 -513 Descending Washington Center
Sun 03:11:46 PM 39.1550 -75.6881 North 155 178 5,700 -508 Descending Washington Center
Sun 03:12:46 PM 39.1947 -75.6828 North 149 171 5,200 -259 Descending Washington Center
Sun 03:14:28 PM 39.2667 -75.6667 10° North 136 157 5,000 77 Descending Philadelphia TRACON
Sun 03:15:22 PM 39.3000 -75.6667 360° North 124 143 5,400 636 Climbing Philadelphia TRACON
Sun 03:16:40 PM 39.3333 -75.6667 360° North 96 110 6,400 661 Climbing Philadelphia TRACON
Sun 03:17:29 PM 39.3500 -75.6667 360° North 97 112 6,800 330 Climbing Philadelphia TRACON
Sun 03:18:29 PM 39.3833 -75.6500 21° North 121 139 7,000 96 Climbing Philadelphia TRACON
Sun 03:19:34 PM 39.4167 -75.6500 360° North 136 157 7,000  Level Philadelphia TRACON
Sun 03:20:34 PM 39.4667 -75.6500 360° North 137 158 7,000  Level Philadelphia TRACON
Sun 03:21:35 PM 39.5000 -75.6333 21° North 136 157 7,000  Level Philadelphia TRACON
Sun 03:22:35 PM 39.5333 -75.6333 360° North 137 158 7,000  Level Philadelphia TRACON
Sun 03:23:41 PM 39.5833 -75.6167 14° North 134 154 7,000  Level Philadelphia TRACON
Sun 03:24:41 PM 39.6167 -75.6167 360° North 132 152 7,000  Level Philadelphia TRACON
Sun 03:25:35 PM 39.6500 -75.6167 360° North 132 152 7,000  Level Philadelphia TRACON
Sun 03:26:41 PM 39.6833 -75.6167 360° North 136 157 7,000  Level Philadelphia TRACON
Sun 03:27:41 PM 39.7167 -75.6167 360° North 130 150 7,000  Level Philadelphia TRACON
Sun 03:28:35 PM 39.7500 -75.6333 339° North 131 151 7,000  Level Philadelphia TRACON
Sun 03:29:35 PM 39.7833 -75.6333 360° North 131 151 7,000  Level Philadelphia TRACON
Sun 03:30:35 PM 39.8333 -75.6500 346° North 132 152 7,000  Level Philadelphia TRACON
Sun 03:31:29 PM 39.8500 -75.6500 360° North 129 148 7,000  Level Philadelphia TRACON
Sun 03:32:29 PM 39.9000 -75.6667 346° North 128 147 7,000 50 Level Philadelphia TRACON
Sun 03:33:29 PM 39.9333 -75.6667 360° North 141 162 7,100  Climbing Philadelphia TRACON
Sun 03:34:42 PM 39.9667 -75.6167 49° Northeast 144 166 7,000 -45 Descending Philadelphia TRACON
Sun 03:35:42 PM 39.9833 -75.5833 57° Northeast 147 169 7,000  Level Philadelphia TRACON
Sun 03:36:36 PM 40.0167 -75.5333 49° Northeast 146 168 7,000  Level Philadelphia TRACON
Sun 03:37:30 PM 40.0333 -75.5000 57° Northeast 151 174 7,000  Level Philadelphia TRACON
Sun 03:38:30 PM 40.0667 -75.4667 37° Northeast 145 167 7,000  Level Philadelphia TRACON
Sun 03:39:30 PM 40.1000 -75.4333 37° Northeast 149 171 7,000  Level Philadelphia TRACON
Sun 03:40:36 PM 40.1167 -75.3833 66° East 142 163 7,000 -200 Level Philadelphia TRACON
Sun 03:41:30 PM 40.1500 -75.3500 37° Northeast 157 181 6,600 -400 Descending Philadelphia TRACON
Sun 03:42:36 PM 40.1833 -75.3000 49° Northeast 156 180 6,200 -286 Descending Philadelphia TRACON
Sun 03:43:36 PM 40.2167 -75.2667 37° Northeast 148 170 6,000 -150 Descending Philadelphia TRACON
Sun 03:44:36 PM 40.2333 -75.2333 57° Northeast 138 159 5,900 -293 Descending Philadelphia TRACON
Sun 03:46:40 PM 40.3000 -75.1500 44° Northeast 163 188 5,100 -359 Descending New York TRACON
Sun 03:47:40 PM 40.3333 -75.1000 49° Northeast 162 186 4,800 -143 Descending New York TRACON
Sun 03:48:46 PM 40.3500 -75.0833 37° Northeast 158 182 4,800 -429 Level New York TRACON
Sun 03:49:46 PM 40.3833 -75.0167 57° Northeast 155 178 3,900 -450 Descending New York TRACON
Sun 03:50:46 PM 40.4167 -74.9667 49° Northeast 139 160 3,900  Level New York TRACON
Sun 03:51:46 PM 40.4500 -74.9333 37° Northeast 142 163 3,900  Level New York TRACON
Sun 03:52:46 PM 40.4667 -74.9000 57° Northeast 142 163 3,900  Level New York TRACON
Sun 03:53:46 PM 40.5000 -74.8667 37° Northeast 143 165 3,900  Level New York TRACON
Sun 03:54:46 PM 40.5333 -74.8167 49° Northeast 143 165 3,900  Level New York TRACON
Sun 03:55:46 PM 40.5500 -74.7833 57° Northeast 138 159 3,900  Level New York TRACON
Sun 03:56:46 PM 40.5833 -74.7500 37° Northeast 142 163 3,900  Level New York TRACON
Sun 03:57:46 PM 40.6000 -74.7167 57° Northeast 131 151 3,900  Level New York TRACON
Sun 03:58:46 PM 40.6333 -74.7000 21° North 137 158 3,900 53 Level New York TRACON
Sun 03:59:40 PM 40.6667 -74.6667 37° Northeast 134 154 4,000 50 Climbing New York TRACON
Sun 04:00:46 PM 40.7000 -74.6500 21° North 137 158 4,000  Level New York TRACON
Sun 04:01:46 PM 40.7333 -74.6167 37° Northeast 140 161 4,000  Level New York TRACON
Sun 04:02:46 PM 40.7667 -74.5833 37° Northeast 139 160 4,000  Level New York TRACON
Sun 04:03:46 PM 40.8000 -74.5667 21° North 133 153 4,000  Level New York TRACON
Sun 04:04:46 PM 40.8333 -74.5333 37° Northeast 128 147 4,000 -250 Level New York TRACON
Sun 04:05:46 PM 40.8500 -74.4833 66° East 149 171 3,500 -450 Descending New York TRACON
Sun 04:06:46 PM 40.8500 -74.4333 90° East 149 171 3,100 -250 Descending New York TRACON
Sun 04:07:46 PM 40.8667 -74.3833 66° East 131 151 3,000 -600 Descending New York TRACON
Sun 04:08:46 PM 40.8667 -74.3333 90° East 136 157 1,900 -900 Descending New York TRACON
Sun 04:09:46 PM 40.8500 -74.3000 123° Southeast 119 137 1,200 -350 Descending New York TRACON
Sun 04:10:46 PM 40.8500 -74.2500 90° East 104 120 1,200 -100 Level New York TRACON
Sun 04:11:46 PM 40.8833 -74.2500 360° North 88 101 1,000 -200 Descending New York TRACON
Sun 04:13:00 PM 40.8752 -74.2814 217° Southwest  Level Estimated
Sun 04:20:00 PM 40.8752 -74.2814 52° Northeast  Level Estimated

Login

Don't have an account? Register now (free) for customized features, flight alerts, and more!